sensor_id;sensor_type;location;lat;lon;timestamp;P1;durP1;ratioP1;P2;durP2;ratioP2
69542;SDS011;56762;49.494;11.768;2023-03-23T00:00:51;9.32;;;3.85;;
69542;SDS011;56762;49.494;11.768;2023-03-23T00:03:19;43.60;;;15.57;;
69542;SDS011;56762;49.494;11.768;2023-03-23T00:05:46;25.55;;;10.23;;
69542;SDS011;56762;49.494;11.768;2023-03-23T00:08:15;12.65;;;5.32;;
69542;SDS011;56762;49.494;11.768;2023-03-23T00:10:44;5.55;;;2.15;;
69542;SDS011;56762;49.494;11.768;2023-03-23T00:13:14;4.45;;;1.90;;
69542;SDS011;56762;49.494;11.768;2023-03-23T00:15:45;4.70;;;2.10;;
69542;SDS011;56762;49.494;11.768;2023-03-23T00:18:14;6.13;;;2.83;;
69542;SDS011;56762;49.494;11.768;2023-03-23T00:20:47;7.22;;;2.83;;
69542;SDS011;56762;49.494;11.768;2023-03-23T00:23:15;4.38;;;2.60;;
69542;SDS011;56762;49.494;11.768;2023-03-23T00:25:46;5.85;;;2.80;;
69542;SDS011;56762;49.494;11.768;2023-03-23T00:28:14;6.00;;;2.60;;
69542;SDS011;56762;49.494;11.768;2023-03-23T00:30:42;4.55;;;2.17;;
69542;SDS011;56762;49.494;11.768;2023-03-23T00:33:10;4.53;;;2.58;;
69542;SDS011;56762;49.494;11.768;2023-03-23T00:35:37;6.65;;;2.50;;
69542;SDS011;56762;49.494;11.768;2023-03-23T00:38:05;5.20;;;2.78;;
69542;SDS011;56762;49.494;11.768;2023-03-23T00:40:33;4.67;;;2.70;;
69542;SDS011;56762;49.494;11.768;2023-03-23T00:43:02;6.22;;;2.60;;
69542;SDS011;56762;49.494;11.768;2023-03-23T00:45:30;6.18;;;2.20;;
69542;SDS011;56762;49.494;11.768;2023-03-23T00:48:00;4.20;;;2.05;;
69542;SDS011;56762;49.494;11.768;2023-03-23T00:50:27;3.30;;;1.70;;
69542;SDS011;56762;49.494;11.768;2023-03-23T00:52:54;5.07;;;2.17;;
69542;SDS011;56762;49.494;11.768;2023-03-23T00:55:22;6.03;;;2.40;;
69542;SDS011;56762;49.494;11.768;2023-03-23T00:57:49;6.45;;;2.88;;
69542;SDS011;56762;49.494;11.768;2023-03-23T01:00:18;6.57;;;2.85;;
69542;SDS011;56762;49.494;11.768;2023-03-23T01:02:46;7.28;;;3.80;;
69542;SDS011;56762;49.494;11.768;2023-03-23T01:05:13;7.33;;;3.07;;
69542;SDS011;56762;49.494;11.768;2023-03-23T01:07:41;6.28;;;2.53;;
69542;SDS011;56762;49.494;11.768;2023-03-23T01:10:09;4.97;;;2.40;;
69542;SDS011;56762;49.494;11.768;2023-03-23T01:12:41;7.35;;;2.35;;
69542;SDS011;56762;49.494;11.768;2023-03-23T01:15:10;5.03;;;2.00;;
69542;SDS011;56762;49.494;11.768;2023-03-23T01:17:43;6.53;;;2.07;;
69542;SDS011;56762;49.494;11.768;2023-03-23T01:20:10;5.90;;;2.60;;
69542;SDS011;56762;49.494;11.768;2023-03-23T01:22:38;3.67;;;1.60;;
69542;SDS011;56762;49.494;11.768;2023-03-23T01:25:05;5.45;;;1.67;;
69542;SDS011;56762;49.494;11.768;2023-03-23T01:27:33;5.47;;;1.83;;
69542;SDS011;56762;49.494;11.768;2023-03-23T01:30:00;5.40;;;2.03;;
69542;SDS011;56762;49.494;11.768;2023-03-23T01:32:28;4.30;;;1.52;;
69542;SDS011;56762;49.494;11.768;2023-03-23T01:34:56;4.03;;;1.83;;
69542;SDS011;56762;49.494;11.768;2023-03-23T01:37:23;3.83;;;1.80;;
69542;SDS011;56762;49.494;11.768;2023-03-23T01:39:53;4.75;;;1.90;;
69542;SDS011;56762;49.494;11.768;2023-03-23T01:42:21;3.93;;;1.87;;
69542;SDS011;56762;49.494;11.768;2023-03-23T01:47:55;4.65;;;2.22;;
69542;SDS011;56762;49.494;11.768;2023-03-23T01:50:28;4.72;;;2.30;;
69542;SDS011;56762;49.494;11.768;2023-03-23T01:53:00;4.38;;;1.95;;
69542;SDS011;56762;49.494;11.768;2023-03-23T01:55:28;4.43;;;1.83;;
69542;SDS011;56762;49.494;11.768;2023-03-23T01:57:55;3.95;;;1.70;;
69542;SDS011;56762;49.494;11.768;2023-03-23T02:00:23;4.93;;;1.92;;
69542;SDS011;56762;49.494;11.768;2023-03-23T02:02:51;3.95;;;1.63;;
69542;SDS011;56762;49.494;11.768;2023-03-23T02:05:22;4.85;;;2.10;;
69542;SDS011;56762;49.494;11.768;2023-03-23T02:07:55;5.17;;;1.80;;
69542;SDS011;56762;49.494;11.768;2023-03-23T02:10:28;4.65;;;1.80;;
69542;SDS011;56762;49.494;11.768;2023-03-23T02:12:55;4.68;;;1.80;;
69542;SDS011;56762;49.494;11.768;2023-03-23T02:15:22;4.00;;;1.60;;
69542;SDS011;56762;49.494;11.768;2023-03-23T02:17:52;3.80;;;1.58;;
69542;SDS011;56762;49.494;11.768;2023-03-23T02:20:33;3.20;;;1.57;;
69542;SDS011;56762;49.494;11.768;2023-03-23T02:23:11;3.63;;;1.70;;
69542;SDS011;56762;49.494;11.768;2023-03-23T02:26:06;3.45;;;1.90;;
69542;SDS011;56762;49.494;11.768;2023-03-23T02:28:58;4.55;;;2.25;;
69542;SDS011;56762;49.494;11.768;2023-03-23T02:31:45;5.03;;;1.95;;
69542;SDS011;56762;49.494;11.768;2023-03-23T02:34:25;4.00;;;1.77;;
69542;SDS011;56762;49.494;11.768;2023-03-23T02:36:56;6.85;;;2.10;;
69542;SDS011;56762;49.494;11.768;2023-03-23T02:39:28;4.78;;;2.10;;
69542;SDS011;56762;49.494;11.768;2023-03-23T02:41:58;5.22;;;2.10;;
69542;SDS011;56762;49.494;11.768;2023-03-23T02:44:29;4.03;;;1.92;;
69542;SDS011;56762;49.494;11.768;2023-03-23T02:46:59;4.23;;;1.90;;
69542;SDS011;56762;49.494;11.768;2023-03-23T02:49:31;3.63;;;1.70;;
69542;SDS011;56762;49.494;11.768;2023-03-23T02:52:01;4.18;;;1.75;;
69542;SDS011;56762;49.494;11.768;2023-03-23T02:54:31;3.88;;;1.85;;
69542;SDS011;56762;49.494;11.768;2023-03-23T02:56:58;9.85;;;3.55;;
69542;SDS011;56762;49.494;11.768;2023-03-23T02:59:26;12.07;;;4.57;;
69542;SDS011;56762;49.494;11.768;2023-03-23T03:04:45;10.77;;;4.03;;
69542;SDS011;56762;49.494;11.768;2023-03-23T03:07:23;9.65;;;4.25;;
69542;SDS011;56762;49.494;11.768;2023-03-23T03:10:06;9.40;;;3.90;;
69542;SDS011;56762;49.494;11.768;2023-03-23T03:12:41;7.53;;;3.43;;
69542;SDS011;56762;49.494;11.768;2023-03-23T03:15:15;9.10;;;2.72;;
69542;SDS011;56762;49.494;11.768;2023-03-23T03:17:50;6.15;;;2.70;;
69542;SDS011;56762;49.494;11.768;2023-03-23T03:20:24;8.38;;;3.45;;
69542;SDS011;56762;49.494;11.768;2023-03-23T03:22:53;8.77;;;3.55;;
69542;SDS011;56762;49.494;11.768;2023-03-23T03:25:21;8.80;;;3.17;;
69542;SDS011;56762;49.494;11.768;2023-03-23T03:27:49;10.98;;;3.60;;
69542;SDS011;56762;49.494;11.768;2023-03-23T03:30:19;7.97;;;3.30;;
69542;SDS011;56762;49.494;11.768;2023-03-23T03:32:50;9.63;;;4.00;;
69542;SDS011;56762;49.494;11.768;2023-03-23T03:35:20;8.15;;;3.70;;
69542;SDS011;56762;49.494;11.768;2023-03-23T03:37:50;6.60;;;3.40;;
69542;SDS011;56762;49.494;11.768;2023-03-23T03:40:19;7.78;;;3.30;;
69542;SDS011;56762;49.494;11.768;2023-03-23T03:42:47;7.20;;;3.50;;
69542;SDS011;56762;49.494;11.768;2023-03-23T03:45:15;9.20;;;3.90;;
69542;SDS011;56762;49.494;11.768;2023-03-23T03:47:44;8.40;;;3.70;;
69542;SDS011;56762;49.494;11.768;2023-03-23T03:53:57;10.50;;;3.53;;
69542;SDS011;56762;49.494;11.768;2023-03-23T03:56:24;9.05;;;3.80;;
69542;SDS011;56762;49.494;11.768;2023-03-23T03:58:51;7.38;;;3.42;;
69542;SDS011;56762;49.494;11.768;2023-03-23T04:01:18;6.65;;;3.00;;
69542;SDS011;56762;49.494;11.768;2023-03-23T04:03:47;6.33;;;2.90;;
69542;SDS011;56762;49.494;11.768;2023-03-23T04:06:15;8.18;;;2.85;;
69542;SDS011;56762;49.494;11.768;2023-03-23T04:08:41;13.18;;;5.55;;
69542;SDS011;56762;49.494;11.768;2023-03-23T04:11:11;15.18;;;6.13;;
69542;SDS011;56762;49.494;11.768;2023-03-23T04:13:39;18.67;;;7.93;;
69542;SDS011;56762;49.494;11.768;2023-03-23T04:16:06;18.27;;;7.13;;
69542;SDS011;56762;49.494;11.768;2023-03-23T04:18:33;16.90;;;6.97;;
69542;SDS011;56762;49.494;11.768;2023-03-23T04:21:01;13.38;;;5.88;;
69542;SDS011;56762;49.494;11.768;2023-03-23T04:23:29;14.95;;;5.72;;
69542;SDS011;56762;49.494;11.768;2023-03-23T04:25:58;9.85;;;4.45;;
69542;SDS011;56762;49.494;11.768;2023-03-23T04:28:27;11.87;;;3.90;;
69542;SDS011;56762;49.494;11.768;2023-03-23T04:30:54;10.32;;;3.70;;
69542;SDS011;56762;49.494;11.768;2023-03-23T04:33:22;9.20;;;3.17;;
69542;SDS011;56762;49.494;11.768;2023-03-23T04:35:51;6.70;;;2.90;;
69542;SDS011;56762;49.494;11.768;2023-03-23T04:38:19;8.98;;;3.85;;
69542;SDS011;56762;49.494;11.768;2023-03-23T04:40:48;10.00;;;3.30;;
69542;SDS011;56762;49.494;11.768;2023-03-23T04:43:16;8.98;;;3.35;;
69542;SDS011;56762;49.494;11.768;2023-03-23T04:45:51;9.45;;;3.97;;
69542;SDS011;56762;49.494;11.768;2023-03-23T04:48:21;10.55;;;4.70;;
69542;SDS011;56762;49.494;11.768;2023-03-23T04:50:49;9.48;;;4.30;;
69542;SDS011;56762;49.494;11.768;2023-03-23T04:53:17;10.40;;;4.73;;
69542;SDS011;56762;49.494;11.768;2023-03-23T04:55:44;10.57;;;4.78;;
69542;SDS011;56762;49.494;11.768;2023-03-23T04:58:14;10.05;;;4.72;;
69542;SDS011;56762;49.494;11.768;2023-03-23T05:00:41;9.50;;;4.43;;
69542;SDS011;56762;49.494;11.768;2023-03-23T05:03:16;8.95;;;4.28;;
69542;SDS011;56762;49.494;11.768;2023-03-23T05:05:43;10.80;;;4.57;;
69542;SDS011;56762;49.494;11.768;2023-03-23T05:08:12;9.50;;;4.35;;
69542;SDS011;56762;49.494;11.768;2023-03-23T05:10:39;15.80;;;7.03;;
69542;SDS011;56762;49.494;11.768;2023-03-23T05:13:05;13.70;;;6.35;;
69542;SDS011;56762;49.494;11.768;2023-03-23T05:15:32;13.38;;;5.97;;
69542;SDS011;56762;49.494;11.768;2023-03-23T05:17:59;13.33;;;6.20;;
69542;SDS011;56762;49.494;11.768;2023-03-23T05:20:27;13.63;;;6.45;;
69542;SDS011;56762;49.494;11.768;2023-03-23T05:22:55;14.00;;;5.88;;
69542;SDS011;56762;49.494;11.768;2023-03-23T05:25:22;12.15;;;5.50;;
69542;SDS011;56762;49.494;11.768;2023-03-23T05:27:49;13.30;;;5.93;;
69542;SDS011;56762;49.494;11.768;2023-03-23T05:30:17;10.77;;;5.57;;
69542;SDS011;56762;49.494;11.768;2023-03-23T05:32:45;8.27;;;4.68;;
69542;SDS011;56762;49.494;11.768;2023-03-23T05:35:15;8.00;;;3.92;;
69542;SDS011;56762;49.494;11.768;2023-03-23T05:37:44;9.32;;;4.15;;
69542;SDS011;56762;49.494;11.768;2023-03-23T05:40:11;9.18;;;3.92;;
69542;SDS011;56762;49.494;11.768;2023-03-23T05:42:38;8.13;;;3.40;;
69542;SDS011;56762;49.494;11.768;2023-03-23T05:45:06;12.95;;;6.65;;
69542;SDS011;56762;49.494;11.768;2023-03-23T05:47:36;12.10;;;4.82;;
69542;SDS011;56762;49.494;11.768;2023-03-23T05:50:03;15.60;;;6.80;;
69542;SDS011;56762;49.494;11.768;2023-03-23T05:52:31;13.98;;;5.97;;
69542;SDS011;56762;49.494;11.768;2023-03-23T05:55:01;15.43;;;5.90;;
69542;SDS011;56762;49.494;11.768;2023-03-23T05:57:29;10.68;;;4.80;;
69542;SDS011;56762;49.494;11.768;2023-03-23T05:59:56;9.88;;;4.05;;
69542;SDS011;56762;49.494;11.768;2023-03-23T06:02:24;7.20;;;3.53;;
69542;SDS011;56762;49.494;11.768;2023-03-23T06:04:53;11.15;;;4.03;;
69542;SDS011;56762;49.494;11.768;2023-03-23T06:07:22;7.73;;;3.17;;
69542;SDS011;56762;49.494;11.768;2023-03-23T06:09:49;10.00;;;3.70;;
69542;SDS011;56762;49.494;11.768;2023-03-23T06:12:18;6.93;;;3.10;;
69542;SDS011;56762;49.494;11.768;2023-03-23T06:14:45;5.40;;;2.85;;
69542;SDS011;56762;49.494;11.768;2023-03-23T06:17:13;7.55;;;3.83;;
69542;SDS011;56762;49.494;11.768;2023-03-23T06:19:40;8.57;;;3.20;;
69542;SDS011;56762;49.494;11.768;2023-03-23T06:22:07;8.77;;;3.72;;
69542;SDS011;56762;49.494;11.768;2023-03-23T06:24:33;7.68;;;3.55;;
69542;SDS011;56762;49.494;11.768;2023-03-23T06:27:00;7.45;;;3.60;;
69542;SDS011;56762;49.494;11.768;2023-03-23T06:29:28;7.47;;;3.95;;
69542;SDS011;56762;49.494;11.768;2023-03-23T06:31:57;8.80;;;3.90;;
69542;SDS011;56762;49.494;11.768;2023-03-23T06:34:28;7.35;;;3.40;;
69542;SDS011;56762;49.494;11.768;2023-03-23T06:36:54;6.82;;;3.13;;
69542;SDS011;56762;49.494;11.768;2023-03-23T06:39:21;7.20;;;3.35;;
69542;SDS011;56762;49.494;11.768;2023-03-23T06:41:48;9.10;;;4.20;;
69542;SDS011;56762;49.494;11.768;2023-03-23T06:44:14;9.87;;;3.03;;
69542;SDS011;56762;49.494;11.768;2023-03-23T06:46:42;5.38;;;2.50;;
69542;SDS011;56762;49.494;11.768;2023-03-23T06:49:09;4.50;;;2.25;;
69542;SDS011;56762;49.494;11.768;2023-03-23T06:51:36;7.32;;;2.88;;
69542;SDS011;56762;49.494;11.768;2023-03-23T06:54:03;16.50;;;7.30;;
69542;SDS011;56762;49.494;11.768;2023-03-23T06:56:30;6.93;;;2.80;;
69542;SDS011;56762;49.494;11.768;2023-03-23T06:58:57;4.55;;;1.35;;
69542;SDS011;56762;49.494;11.768;2023-03-23T07:01:24;3.55;;;0.88;;
69542;SDS011;56762;49.494;11.768;2023-03-23T07:03:53;2.38;;;0.65;;
69542;SDS011;56762;49.494;11.768;2023-03-23T07:06:20;2.55;;;0.47;;
69542;SDS011;56762;49.494;11.768;2023-03-23T07:08:47;5.33;;;1.30;;
69542;SDS011;56762;49.494;11.768;2023-03-23T07:11:14;3.47;;;1.02;;
69542;SDS011;56762;49.494;11.768;2023-03-23T07:13:40;2.90;;;0.90;;
69542;SDS011;56762;49.494;11.768;2023-03-23T07:16:07;8.65;;;3.53;;
69542;SDS011;56762;49.494;11.768;2023-03-23T07:18:36;6.75;;;2.53;;
69542;SDS011;56762;49.494;11.768;2023-03-23T07:21:04;4.43;;;1.20;;
69542;SDS011;56762;49.494;11.768;2023-03-23T07:23:31;4.40;;;1.27;;
69542;SDS011;56762;49.494;11.768;2023-03-23T07:25:58;1.67;;;0.73;;
69542;SDS011;56762;49.494;11.768;2023-03-23T07:28:25;2.95;;;1.20;;
69542;SDS011;56762;49.494;11.768;2023-03-23T07:30:52;2.75;;;1.10;;
69542;SDS011;56762;49.494;11.768;2023-03-23T07:33:19;3.30;;;0.70;;
69542;SDS011;56762;49.494;11.768;2023-03-23T07:35:46;2.53;;;0.77;;
69542;SDS011;56762;49.494;11.768;2023-03-23T07:38:15;2.92;;;1.00;;
69542;SDS011;56762;49.494;11.768;2023-03-23T07:40:41;2.75;;;0.70;;
69542;SDS011;56762;49.494;11.768;2023-03-23T07:43:09;2.90;;;1.00;;
69542;SDS011;56762;49.494;11.768;2023-03-23T07:45:35;2.37;;;0.60;;
69542;SDS011;56762;49.494;11.768;2023-03-23T07:48:02;4.60;;;1.38;;
69542;SDS011;56762;49.494;11.768;2023-03-23T07:50:30;4.20;;;1.33;;
69542;SDS011;56762;49.494;11.768;2023-03-23T07:52:57;4.05;;;1.50;;
69542;SDS011;56762;49.494;11.768;2023-03-23T07:55:26;4.05;;;2.05;;
69542;SDS011;56762;49.494;11.768;2023-03-23T07:57:53;4.27;;;1.40;;
69542;SDS011;56762;49.494;11.768;2023-03-23T08:00:21;3.60;;;1.30;;
69542;SDS011;56762;49.494;11.768;2023-03-23T08:02:50;4.18;;;1.60;;
69542;SDS011;56762;49.494;11.768;2023-03-23T08:05:18;2.63;;;1.08;;
69542;SDS011;56762;49.494;11.768;2023-03-23T08:07:46;3.10;;;1.40;;
69542;SDS011;56762;49.494;11.768;2023-03-23T08:10:13;2.57;;;1.10;;
69542;SDS011;56762;49.494;11.768;2023-03-23T08:12:44;3.03;;;1.08;;
69542;SDS011;56762;49.494;11.768;2023-03-23T08:15:13;3.20;;;1.00;;
69542;SDS011;56762;49.494;11.768;2023-03-23T08:17:41;3.28;;;1.10;;
69542;SDS011;56762;49.494;11.768;2023-03-23T08:20:09;2.83;;;0.90;;
69542;SDS011;56762;49.494;11.768;2023-03-23T08:22:38;3.10;;;0.90;;
69542;SDS011;56762;49.494;11.768;2023-03-23T08:25:07;5.30;;;0.93;;
69542;SDS011;56762;49.494;11.768;2023-03-23T08:27:35;3.33;;;0.95;;
69542;SDS011;56762;49.494;11.768;2023-03-23T08:30:04;3.75;;;1.10;;
69542;SDS011;56762;49.494;11.768;2023-03-23T08:32:32;4.63;;;0.90;;
69542;SDS011;56762;49.494;11.768;2023-03-23T08:34:59;2.70;;;1.00;;
69542;SDS011;56762;49.494;11.768;2023-03-23T08:37:26;5.68;;;1.02;;
69542;SDS011;56762;49.494;11.768;2023-03-23T08:39:53;3.17;;;1.30;;
69542;SDS011;56762;49.494;11.768;2023-03-23T08:42:22;2.05;;;1.00;;
69542;SDS011;56762;49.494;11.768;2023-03-23T08:44:49;2.75;;;1.20;;
69542;SDS011;56762;49.494;11.768;2023-03-23T08:47:18;3.87;;;1.07;;
69542;SDS011;56762;49.494;11.768;2023-03-23T08:49:45;4.97;;;1.30;;
69542;SDS011;56762;49.494;11.768;2023-03-23T08:52:11;3.25;;;1.30;;
69542;SDS011;56762;49.494;11.768;2023-03-23T08:54:38;3.55;;;1.20;;
69542;SDS011;56762;49.494;11.768;2023-03-23T08:57:05;2.47;;;1.08;;
69542;SDS011;56762;49.494;11.768;2023-03-23T08:59:32;3.20;;;1.40;;
69542;SDS011;56762;49.494;11.768;2023-03-23T09:01:59;3.30;;;1.13;;
69542;SDS011;56762;49.494;11.768;2023-03-23T09:04:27;2.97;;;1.45;;
69542;SDS011;56762;49.494;11.768;2023-03-23T09:06:54;9.98;;;2.45;;
69542;SDS011;56762;49.494;11.768;2023-03-23T09:09:21;4.75;;;1.67;;
69542;SDS011;56762;49.494;11.768;2023-03-23T09:11:48;4.07;;;1.40;;
69542;SDS011;56762;49.494;11.768;2023-03-23T09:14:15;8.38;;;2.25;;
69542;SDS011;56762;49.494;11.768;2023-03-23T09:16:42;5.30;;;2.10;;
69542;SDS011;56762;49.494;11.768;2023-03-23T09:19:09;3.90;;;1.42;;
69542;SDS011;56762;49.494;11.768;2023-03-23T09:21:37;5.10;;;1.75;;
69542;SDS011;56762;49.494;11.768;2023-03-23T09:24:04;3.13;;;1.27;;
69542;SDS011;56762;49.494;11.768;2023-03-23T09:26:31;3.47;;;1.40;;
69542;SDS011;56762;49.494;11.768;2023-03-23T09:28:58;5.95;;;2.22;;
69542;SDS011;56762;49.494;11.768;2023-03-23T09:31:24;4.90;;;2.00;;
69542;SDS011;56762;49.494;11.768;2023-03-23T09:33:53;6.47;;;1.70;;
69542;SDS011;56762;49.494;11.768;2023-03-23T09:36:21;5.37;;;1.77;;
69542;SDS011;56762;49.494;11.768;2023-03-23T09:38:52;4.22;;;1.90;;
69542;SDS011;56762;49.494;11.768;2023-03-23T09:41:35;4.25;;;1.88;;
69542;SDS011;56762;49.494;11.768;2023-03-23T09:44:16;4.68;;;1.80;;
69542;SDS011;56762;49.494;11.768;2023-03-23T09:46:50;4.72;;;1.98;;
69542;SDS011;56762;49.494;11.768;2023-03-23T09:49:25;11.50;;;3.63;;
69542;SDS011;56762;49.494;11.768;2023-03-23T09:51:57;8.15;;;2.38;;
69542;SDS011;56762;49.494;11.768;2023-03-23T09:54:30;9.10;;;2.97;;
69542;SDS011;56762;49.494;11.768;2023-03-23T09:57:01;18.92;;;4.15;;
69542;SDS011;56762;49.494;11.768;2023-03-23T09:59:30;6.82;;;2.83;;
69542;SDS011;56762;49.494;11.768;2023-03-23T10:02:08;3.63;;;1.60;;
69542;SDS011;56762;49.494;11.768;2023-03-23T10:04:39;6.55;;;1.80;;
69542;SDS011;56762;49.494;11.768;2023-03-23T10:07:15;27.20;;;8.82;;
69542;SDS011;56762;49.494;11.768;2023-03-23T10:09:46;15.80;;;6.03;;
69542;SDS011;56762;49.494;11.768;2023-03-23T10:12:18;6.38;;;2.60;;
69542;SDS011;56762;49.494;11.768;2023-03-23T10:15:02;3.60;;;1.60;;
69542;SDS011;56762;49.494;11.768;2023-03-23T10:17:37;4.05;;;1.90;;
69542;SDS011;56762;49.494;11.768;2023-03-23T10:20:22;4.40;;;1.63;;
69542;SDS011;56762;49.494;11.768;2023-03-23T10:22:58;2.88;;;1.50;;
69542;SDS011;56762;49.494;11.768;2023-03-23T10:25:34;4.32;;;1.95;;
69542;SDS011;56762;49.494;11.768;2023-03-23T10:28:04;4.53;;;1.47;;
69542;SDS011;56762;49.494;11.768;2023-03-23T10:30:38;6.53;;;4.05;;
69542;SDS011;56762;49.494;11.768;2023-03-23T10:33:10;5.13;;;2.83;;
69542;SDS011;56762;49.494;11.768;2023-03-23T10:35:42;3.03;;;1.58;;
69542;SDS011;56762;49.494;11.768;2023-03-23T10:38:13;5.22;;;3.13;;
69542;SDS011;56762;49.494;11.768;2023-03-23T10:40:48;3.97;;;2.00;;
69542;SDS011;56762;49.494;11.768;2023-03-23T10:43:17;2.70;;;1.20;;
69542;SDS011;56762;49.494;11.768;2023-03-23T10:45:44;3.78;;;1.88;;
69542;SDS011;56762;49.494;11.768;2023-03-23T10:48:16;4.13;;;1.75;;
69542;SDS011;56762;49.494;11.768;2023-03-23T10:50:46;4.80;;;2.13;;
69542;SDS011;56762;49.494;11.768;2023-03-23T10:53:19;4.43;;;1.80;;
69542;SDS011;56762;49.494;11.768;2023-03-23T10:55:50;4.28;;;1.80;;
69542;SDS011;56762;49.494;11.768;2023-03-23T10:58:22;4.63;;;1.85;;
69542;SDS011;56762;49.494;11.768;2023-03-23T11:00:51;3.83;;;1.90;;
69542;SDS011;56762;49.494;11.768;2023-03-23T11:03:22;3.08;;;1.63;;
69542;SDS011;56762;49.494;11.768;2023-03-23T11:05:55;2.23;;;1.07;;
69542;SDS011;56762;49.494;11.768;2023-03-23T11:08:24;4.18;;;1.50;;
69542;SDS011;56762;49.494;11.768;2023-03-23T11:10:56;2.92;;;1.70;;
69542;SDS011;56762;49.494;11.768;2023-03-23T11:13:37;4.63;;;1.38;;
69542;SDS011;56762;49.494;11.768;2023-03-23T11:16:07;4.03;;;1.20;;
69542;SDS011;56762;49.494;11.768;2023-03-23T11:18:36;6.97;;;1.20;;
69542;SDS011;56762;49.494;11.768;2023-03-23T11:21:04;3.17;;;1.35;;
69542;SDS011;56762;49.494;11.768;2023-03-23T11:23:33;3.45;;;1.30;;
69542;SDS011;56762;49.494;11.768;2023-03-23T11:26:06;3.75;;;1.13;;
69542;SDS011;56762;49.494;11.768;2023-03-23T11:28:42;3.35;;;1.23;;
69542;SDS011;56762;49.494;11.768;2023-03-23T11:31:11;4.23;;;1.30;;
69542;SDS011;56762;49.494;11.768;2023-03-23T11:33:41;2.55;;;0.93;;
69542;SDS011;56762;49.494;11.768;2023-03-23T11:36:15;3.67;;;1.13;;
69542;SDS011;56762;49.494;11.768;2023-03-23T11:38:42;2.85;;;1.08;;
69542;SDS011;56762;49.494;11.768;2023-03-23T11:41:12;3.67;;;1.15;;
69542;SDS011;56762;49.494;11.768;2023-03-23T11:43:45;3.30;;;1.57;;
69542;SDS011;56762;49.494;11.768;2023-03-23T11:46:16;3.63;;;1.40;;
69542;SDS011;56762;49.494;11.768;2023-03-23T11:48:53;3.75;;;1.50;;
69542;SDS011;56762;49.494;11.768;2023-03-23T11:51:24;3.85;;;1.20;;
69542;SDS011;56762;49.494;11.768;2023-03-23T11:53:58;1.95;;;0.95;;
69542;SDS011;56762;49.494;11.768;2023-03-23T11:56:33;7.63;;;1.17;;
69542;SDS011;56762;49.494;11.768;2023-03-23T11:59:01;2.58;;;1.08;;
69542;SDS011;56762;49.494;11.768;2023-03-23T12:01:39;3.50;;;1.30;;
69542;SDS011;56762;49.494;11.768;2023-03-23T12:07:17;3.40;;;1.27;;
69542;SDS011;56762;49.494;11.768;2023-03-23T12:09:56;2.50;;;1.33;;
69542;SDS011;56762;49.494;11.768;2023-03-23T12:12:32;2.92;;;1.20;;
69542;SDS011;56762;49.494;11.768;2023-03-23T12:15:08;3.17;;;1.35;;
69542;SDS011;56762;49.494;11.768;2023-03-23T12:17:43;2.35;;;1.10;;
69542;SDS011;56762;49.494;11.768;2023-03-23T12:20:24;4.35;;;1.15;;
69542;SDS011;56762;49.494;11.768;2023-03-23T12:23:02;2.77;;;1.10;;
69542;SDS011;56762;49.494;11.768;2023-03-23T12:25:40;4.22;;;1.27;;
69542;SDS011;56762;49.494;11.768;2023-03-23T12:28:19;4.47;;;1.25;;
69542;SDS011;56762;49.494;11.768;2023-03-23T12:30:55;5.50;;;2.15;;
69542;SDS011;56762;49.494;11.768;2023-03-23T12:33:33;3.72;;;1.75;;
69542;SDS011;56762;49.494;11.768;2023-03-23T12:36:17;3.17;;;1.10;;
69542;SDS011;56762;49.494;11.768;2023-03-23T12:38:54;2.55;;;1.10;;
69542;SDS011;56762;49.494;11.768;2023-03-23T12:41:35;4.30;;;1.38;;
69542;SDS011;56762;49.494;11.768;2023-03-23T12:44:09;3.70;;;1.10;;
69542;SDS011;56762;49.494;11.768;2023-03-23T12:46:42;4.75;;;1.30;;
69542;SDS011;56762;49.494;11.768;2023-03-23T12:49:19;2.03;;;0.83;;
69542;SDS011;56762;49.494;11.768;2023-03-23T12:51:50;3.95;;;1.50;;
69542;SDS011;56762;49.494;11.768;2023-03-23T12:54:23;2.67;;;1.10;;
69542;SDS011;56762;49.494;11.768;2023-03-23T12:56:58;3.00;;;1.00;;
69542;SDS011;56762;49.494;11.768;2023-03-23T12:59:30;3.88;;;1.20;;
69542;SDS011;56762;49.494;11.768;2023-03-23T13:02:05;4.67;;;2.13;;
69542;SDS011;56762;49.494;11.768;2023-03-23T13:04:40;4.03;;;1.70;;
69542;SDS011;56762;49.494;11.768;2023-03-23T13:07:10;2.70;;;1.23;;
69542;SDS011;56762;49.494;11.768;2023-03-23T13:09:45;7.18;;;3.60;;
69542;SDS011;56762;49.494;11.768;2023-03-23T13:12:14;3.80;;;1.63;;
69542;SDS011;56762;49.494;11.768;2023-03-23T13:14:47;5.57;;;3.53;;
69542;SDS011;56762;49.494;11.768;2023-03-23T13:17:24;2.40;;;1.20;;
69542;SDS011;56762;49.494;11.768;2023-03-23T13:20:11;4.57;;;1.38;;
69542;SDS011;56762;49.494;11.768;2023-03-23T13:22:46;4.13;;;1.88;;
69542;SDS011;56762;49.494;11.768;2023-03-23T13:25:18;4.35;;;1.83;;
69542;SDS011;56762;49.494;11.768;2023-03-23T13:27:57;2.07;;;0.90;;
69542;SDS011;56762;49.494;11.768;2023-03-23T13:30:27;2.92;;;0.88;;
69542;SDS011;56762;49.494;11.768;2023-03-23T13:33:01;2.33;;;0.77;;
69542;SDS011;56762;49.494;11.768;2023-03-23T13:35:33;2.30;;;0.93;;
69542;SDS011;56762;49.494;11.768;2023-03-23T13:38:01;2.47;;;0.90;;
69542;SDS011;56762;49.494;11.768;2023-03-23T13:40:40;3.63;;;0.70;;
69542;SDS011;56762;49.494;11.768;2023-03-23T13:43:09;1.70;;;0.70;;
69542;SDS011;56762;49.494;11.768;2023-03-23T13:45:42;3.40;;;1.33;;
69542;SDS011;56762;49.494;11.768;2023-03-23T13:48:18;2.95;;;0.60;;
69542;SDS011;56762;49.494;11.768;2023-03-23T13:50:50;1.85;;;0.65;;
69542;SDS011;56762;49.494;11.768;2023-03-23T13:53:23;1.77;;;0.70;;
69542;SDS011;56762;49.494;11.768;2023-03-23T13:56:13;2.13;;;0.88;;
69542;SDS011;56762;49.494;11.768;2023-03-23T13:58:46;7.80;;;2.95;;
69542;SDS011;56762;49.494;11.768;2023-03-23T14:01:17;9.57;;;3.90;;
69542;SDS011;56762;49.494;11.768;2023-03-23T14:03:47;2.42;;;0.93;;
69542;SDS011;56762;49.494;11.768;2023-03-23T14:06:17;3.70;;;1.43;;
69542;SDS011;56762;49.494;11.768;2023-03-23T14:08:47;2.33;;;0.73;;
69542;SDS011;56762;49.494;11.768;2023-03-23T14:11:17;2.35;;;0.60;;
69542;SDS011;56762;49.494;11.768;2023-03-23T14:13:50;2.53;;;0.88;;
69542;SDS011;56762;49.494;11.768;2023-03-23T14:16:31;2.13;;;0.70;;
69542;SDS011;56762;49.494;11.768;2023-03-23T14:19:03;2.10;;;0.47;;
69542;SDS011;56762;49.494;11.768;2023-03-23T14:21:33;2.55;;;1.17;;
69542;SDS011;56762;49.494;11.768;2023-03-23T14:24:02;3.05;;;0.70;;
69542;SDS011;56762;49.494;11.768;2023-03-23T14:26:32;2.05;;;0.88;;
69542;SDS011;56762;49.494;11.768;2023-03-23T14:29:02;2.17;;;0.55;;
69542;SDS011;56762;49.494;11.768;2023-03-23T14:31:31;2.27;;;0.60;;
69542;SDS011;56762;49.494;11.768;2023-03-23T14:34:01;1.92;;;0.65;;
69542;SDS011;56762;49.494;11.768;2023-03-23T14:36:30;1.67;;;0.70;;
69542;SDS011;56762;49.494;11.768;2023-03-23T14:39:00;2.17;;;0.70;;
69542;SDS011;56762;49.494;11.768;2023-03-23T14:41:29;2.75;;;1.10;;
69542;SDS011;56762;49.494;11.768;2023-03-23T14:43:57;3.40;;;1.00;;
69542;SDS011;56762;49.494;11.768;2023-03-23T14:46:26;3.80;;;0.90;;
69542;SDS011;56762;49.494;11.768;2023-03-23T14:48:55;3.50;;;1.60;;
69542;SDS011;56762;49.494;11.768;2023-03-23T14:51:26;2.65;;;0.70;;
69542;SDS011;56762;49.494;11.768;2023-03-23T14:53:53;4.47;;;1.08;;
69542;SDS011;56762;49.494;11.768;2023-03-23T14:56:20;3.33;;;1.00;;
69542;SDS011;56762;49.494;11.768;2023-03-23T14:58:53;4.78;;;1.60;;
69542;SDS011;56762;49.494;11.768;2023-03-23T15:01:23;2.78;;;1.02;;
69542;SDS011;56762;49.494;11.768;2023-03-23T15:03:53;3.58;;;1.00;;